createdAt,value
2019-02-20T00:00:10.335Z,16.40
2019-02-20T00:02:43.411Z,13.70
2019-02-20T00:05:14.872Z,14.93
2019-02-20T00:07:46.377Z,18.30
2019-02-20T00:10:17.861Z,16.70
2019-02-20T00:12:49.458Z,13.10
2019-02-20T00:15:21.066Z,17.43
2019-02-20T00:17:52.533Z,16.20
2019-02-20T00:20:24.002Z,15.53
2019-02-20T00:22:55.478Z,16.37
2019-02-20T00:25:27.481Z,15.13
2019-02-20T00:27:59.003Z,15.93
2019-02-20T00:30:30.474Z,14.40
2019-02-20T00:33:02.002Z,14.40
2019-02-20T00:35:34.548Z,13.07
2019-02-20T00:38:06.093Z,14.60
2019-02-20T00:40:37.562Z,14.40
2019-02-20T00:43:12.282Z,13.50
2019-02-20T00:45:56.666Z,15.50
2019-02-20T00:48:50.118Z,12.43
2019-02-20T00:51:40.524Z,15.10
2019-02-20T00:54:12.216Z,14.40
2019-02-20T00:56:43.882Z,12.00
2019-02-20T00:59:16.966Z,14.40
2019-02-20T01:01:48.573Z,14.73
2019-02-20T01:04:20.140Z,15.03
2019-02-20T01:06:51.594Z,14.87
2019-02-20T01:09:23.170Z,14.93
2019-02-20T01:11:54.760Z,14.40
2019-02-20T01:14:26.226Z,14.13
2019-02-20T01:16:57.776Z,14.27
2019-02-20T01:19:29.283Z,14.40
2019-02-20T01:22:00.749Z,13.73
2019-02-20T01:24:32.290Z,14.50
2019-02-20T01:27:03.762Z,12.63
2019-02-20T01:29:35.242Z,11.50
2019-02-20T01:32:06.684Z,12.80
2019-02-20T01:34:38.282Z,11.37
2019-02-20T01:37:10.355Z,12.57
2019-02-20T01:39:41.959Z,10.80
2019-02-20T01:42:13.406Z,11.33
2019-02-20T01:44:44.856Z,11.17
2019-02-20T01:47:18.642Z,11.40
2019-02-20T01:49:50.298Z,12.63
2019-02-20T01:52:21.806Z,11.80
2019-02-20T01:54:53.338Z,10.80
2019-02-20T01:57:24.824Z,10.30
2019-02-20T01:59:56.336Z,11.07
2019-02-20T02:02:27.862Z,10.27
2019-02-20T02:04:59.296Z,10.43
2019-02-20T02:07:30.739Z,10.77
2019-02-20T02:10:02.179Z,11.10
2019-02-20T02:12:35.229Z,9.20
2019-02-20T02:15:07.511Z,11.00
2019-02-20T02:17:38.999Z,10.03
2019-02-20T02:20:10.544Z,10.30
2019-02-20T02:22:41.989Z,10.93
2019-02-20T02:25:13.447Z,9.00
2019-02-20T02:27:44.887Z,10.63
2019-02-20T02:30:16.842Z,10.40
2019-02-20T02:32:48.400Z,9.67
2019-02-20T02:35:19.885Z,10.17
2019-02-20T02:37:51.417Z,9.73
2019-02-20T02:40:22.952Z,13.20
2019-02-20T02:42:54.461Z,10.00
2019-02-20T02:45:26.012Z,12.07
2019-02-20T02:48:00.771Z,11.20
2019-02-20T02:50:32.293Z,9.70
2019-02-20T02:53:03.729Z,10.47
2019-02-20T02:55:35.213Z,10.23
2019-02-20T02:58:06.714Z,9.70
2019-02-20T03:00:38.189Z,12.70
2019-02-20T03:03:09.705Z,9.93
2019-02-20T03:05:41.235Z,11.17
2019-02-20T03:08:15.498Z,12.63
2019-02-20T03:10:46.966Z,11.20
2019-02-20T03:13:18.405Z,10.63
2019-02-20T03:15:49.868Z,11.77
2019-02-20T03:18:21.321Z,11.63
2019-02-20T03:20:52.789Z,12.57
2019-02-20T03:23:24.212Z,12.43
2019-02-20T03:25:55.659Z,12.40
2019-02-20T03:28:27.288Z,12.27
2019-02-20T03:30:58.762Z,12.40
2019-02-20T03:33:30.236Z,12.40
2019-02-20T03:36:01.733Z,14.30
2019-02-20T03:38:33.179Z,13.87
2019-02-20T03:41:04.986Z,14.80
2019-02-20T03:43:36.477Z,15.17
2019-02-20T03:46:08.113Z,16.87
2019-02-20T03:48:39.653Z,16.17
2019-02-20T03:51:11.149Z,17.23
2019-02-20T03:53:51.193Z,19.57
2019-02-20T03:56:16.033Z,19.83
2019-02-20T03:58:47.472Z,19.93
2019-02-20T04:01:19.040Z,20.07
2019-02-20T04:03:50.466Z,21.50
2019-02-20T04:06:22.989Z,21.80
2019-02-20T04:08:54.455Z,20.77
2019-02-20T04:11:25.950Z,21.53
2019-02-20T04:13:57.402Z,20.70
2019-02-20T04:16:28.876Z,21.77
2019-02-20T04:19:00.302Z,21.27
2019-02-20T04:21:31.774Z,21.93
2019-02-20T04:24:03.245Z,23.60
2019-02-20T04:26:37.920Z,23.47
2019-02-20T04:29:09.379Z,23.53
2019-02-20T04:31:41.802Z,22.47
2019-02-20T04:34:13.252Z,23.27
2019-02-20T04:36:45.801Z,22.93
2019-02-20T04:39:17.361Z,21.90
2019-02-20T04:41:48.846Z,22.20
2019-02-20T04:44:39.333Z,24.03
2019-02-20T04:47:10.849Z,21.60
2019-02-20T04:49:42.394Z,22.33
2019-02-20T04:52:14.242Z,21.70
2019-02-20T04:54:45.897Z,21.27
2019-02-20T04:57:17.432Z,22.13
2019-02-20T04:59:48.938Z,17.87
2019-02-20T05:02:20.568Z,20.83
2019-02-20T05:04:52.072Z,21.77
2019-02-20T05:07:23.574Z,21.60
2019-02-20T05:09:55.072Z,20.80
2019-02-20T05:12:26.541Z,20.40
2019-02-20T05:14:58.110Z,22.83
2019-02-20T05:17:29.553Z,21.30
2019-02-20T05:20:01.128Z,20.53
2019-02-20T05:22:33.762Z,19.80
2019-02-20T05:25:05.398Z,18.63
2019-02-20T05:27:36.869Z,19.50
2019-02-20T05:30:08.592Z,19.30
2019-02-20T05:32:40.073Z,18.77
2019-02-20T05:35:12.630Z,21.03
2019-02-20T05:37:46.881Z,20.83
2019-02-20T05:40:18.392Z,20.60
2019-02-20T05:42:49.870Z,20.70
2019-02-20T05:45:21.377Z,20.73
2019-02-20T05:47:52.928Z,21.17
2019-02-20T05:50:24.345Z,20.17
2019-02-20T05:52:56.064Z,21.30
2019-02-20T05:55:27.516Z,22.80
2019-02-20T05:57:59.014Z,20.60
2019-02-20T06:00:30.566Z,21.77
2019-02-20T06:03:05.031Z,21.80
2019-02-20T06:05:36.733Z,20.27
2019-02-20T06:08:08.227Z,22.80
2019-02-20T06:10:39.674Z,20.80
2019-02-20T06:13:11.165Z,20.90
2019-02-20T06:15:43.202Z,21.33
2019-02-20T06:18:14.983Z,19.97
2019-02-20T06:20:46.588Z,23.70
2019-02-20T06:23:18.124Z,21.87
2019-02-20T06:25:49.578Z,20.50
2019-02-20T06:28:21.141Z,21.97
2019-02-20T06:30:52.582Z,22.53
2019-02-20T06:33:25.100Z,21.90
2019-02-20T06:35:56.538Z,20.13
2019-02-20T06:38:28.027Z,21.63
2019-02-20T06:40:59.482Z,22.73
2019-02-20T06:43:30.999Z,22.90
2019-02-20T06:46:02.432Z,22.23
2019-02-20T06:48:33.935Z,25.70
2019-02-20T06:51:05.409Z,23.70
2019-02-20T06:53:36.899Z,22.87
2019-02-20T06:56:08.501Z,23.07
2019-02-20T06:58:39.974Z,23.30
2019-02-20T07:01:12.476Z,27.17
2019-02-20T07:03:44.104Z,24.40
2019-02-20T07:06:37.653Z,25.27
2019-02-20T07:10:30.319Z,26.90
2019-02-20T07:13:38.726Z,25.70
2019-02-20T07:17:14.782Z,27.10
2019-02-20T07:20:39.075Z,26.47
2019-02-20T07:23:26.480Z,25.40
2019-02-20T07:26:44.845Z,26.20
2019-02-20T07:30:00.552Z,27.57
2019-02-20T07:32:33.271Z,28.83
2019-02-20T07:35:05.141Z,27.17
2019-02-20T07:37:36.660Z,28.57
2019-02-20T07:40:11.016Z,27.33
2019-02-20T07:42:42.490Z,28.70
2019-02-20T07:45:16.441Z,27.47
2019-02-20T07:47:53.901Z,29.53
2019-02-20T07:50:25.590Z,28.00
2019-02-20T07:52:57.353Z,24.87
2019-02-20T07:55:28.939Z,29.40
2019-02-20T07:58:00.673Z,27.17
2019-02-20T08:00:32.250Z,28.47
2019-02-20T08:03:03.714Z,28.47
2019-02-20T08:05:35.285Z,28.90
2019-02-20T08:08:06.759Z,28.17
2019-02-20T08:10:38.327Z,28.17
2019-02-20T08:13:12.430Z,26.97
2019-02-20T08:15:44.209Z,28.23
2019-02-20T08:18:15.725Z,28.70
2019-02-20T08:20:47.278Z,27.83
2019-02-20T08:23:18.950Z,25.80
2019-02-20T08:25:50.530Z,26.57
2019-02-20T08:28:22.148Z,27.57
2019-02-20T08:30:53.876Z,23.93
2019-02-20T08:33:25.441Z,26.60
2019-02-20T08:35:57.327Z,29.17
2019-02-20T08:38:28.982Z,29.93
2019-02-20T08:41:00.607Z,27.20
2019-02-20T08:43:32.390Z,26.40
2019-02-20T08:46:03.844Z,24.57
2019-02-20T08:48:35.479Z,29.17
2019-02-20T08:51:06.977Z,31.03
2019-02-20T08:53:38.589Z,25.10
2019-02-20T08:56:10.067Z,25.70
2019-02-20T08:58:41.517Z,27.67
2019-02-20T09:01:21.271Z,25.60
2019-02-20T09:04:05.176Z,26.40
2019-02-20T09:06:38.609Z,26.20
2019-02-20T09:09:10.194Z,25.90
2019-02-20T09:11:42.145Z,26.43
2019-02-20T09:14:13.724Z,26.60
2019-02-20T09:16:49.432Z,25.20
2019-02-20T09:19:22.575Z,25.53
2019-02-20T09:21:54.101Z,26.80
2019-02-20T09:24:25.558Z,25.63
2019-02-20T09:26:57.117Z,26.20
2019-02-20T09:29:34.920Z,26.80
2019-02-20T09:32:14.738Z,27.03
2019-02-20T09:34:48.485Z,30.13
2019-02-20T09:37:21.461Z,26.80
2019-02-20T09:39:55.598Z,28.07
2019-02-20T09:42:27.212Z,29.20
2019-02-20T09:45:01.618Z,28.00
2019-02-20T09:47:33.610Z,28.10
2019-02-20T09:50:05.197Z,29.20
2019-02-20T09:52:36.773Z,28.20
2019-02-20T09:55:09.808Z,29.10
2019-02-20T09:57:41.439Z,29.67
2019-02-20T10:00:15.109Z,29.07
2019-02-20T10:02:47.376Z,28.90
2019-02-20T10:05:18.967Z,31.17
2019-02-20T10:07:50.471Z,29.73
2019-02-20T10:10:21.919Z,30.13
2019-02-20T10:12:53.439Z,29.73
2019-02-20T10:15:37.060Z,30.57
2019-02-20T10:18:08.635Z,31.03
2019-02-20T10:20:40.148Z,28.07
2019-02-20T10:23:11.837Z,28.10
2019-02-20T10:25:47.725Z,28.10
2019-02-20T10:28:19.308Z,27.87
2019-02-20T10:30:51.778Z,31.13
2019-02-20T10:33:32.275Z,33.10
2019-02-20T10:36:05.977Z,30.50
2019-02-20T10:38:38.858Z,30.20
2019-02-20T10:41:31.266Z,32.20
2019-02-20T10:44:02.788Z,32.37
2019-02-20T10:46:37.365Z,31.87
2019-02-20T10:49:09.066Z,27.90
2019-02-20T10:51:43.375Z,30.77
2019-02-20T10:54:16.791Z,28.40
2019-02-20T10:56:52.987Z,29.27
2019-02-20T10:59:25.549Z,30.07
2019-02-20T11:01:57.034Z,32.20
2019-02-20T11:04:28.559Z,29.10
2019-02-20T11:07:00.045Z,29.23
2019-02-20T11:09:31.959Z,28.10
2019-02-20T11:12:03.472Z,30.30
2019-02-20T11:14:51.071Z,28.60
2019-02-20T11:17:24.408Z,29.63
2019-02-20T11:19:55.954Z,26.67
2019-02-20T11:22:28.122Z,29.57
2019-02-20T11:25:11.930Z,28.90
2019-02-20T11:27:43.750Z,30.50
2019-02-20T11:30:18.175Z,29.53
2019-02-20T11:32:49.986Z,29.50
2019-02-20T11:35:21.642Z,27.60
2019-02-20T11:37:54.211Z,26.10
2019-02-20T11:40:26.261Z,28.40
2019-02-20T11:42:57.828Z,30.57
2019-02-20T11:45:29.554Z,27.67
2019-02-20T11:48:01.104Z,26.70
2019-02-20T11:50:33.811Z,31.67
2019-02-20T11:53:05.327Z,26.40
2019-02-20T11:55:36.854Z,27.00
2019-02-20T11:58:08.460Z,28.40
2019-02-20T12:00:40.671Z,28.43
2019-02-20T12:03:12.164Z,27.63
2019-02-20T12:05:43.774Z,27.70
2019-02-20T12:08:15.573Z,26.57
2019-02-20T12:10:47.214Z,28.50
2019-02-20T12:13:18.974Z,28.67
2019-02-20T12:15:50.662Z,30.10
2019-02-20T12:18:24.172Z,28.97
2019-02-20T12:20:55.666Z,29.20
2019-02-20T12:23:27.279Z,29.00
2019-02-20T12:25:58.948Z,25.90
2019-02-20T12:28:30.504Z,29.03
2019-02-20T12:31:02.202Z,29.43
2019-02-20T12:33:34.120Z,29.30
2019-02-20T12:36:05.740Z,29.67
2019-02-20T12:38:37.415Z,29.30
2019-02-20T12:41:10.890Z,33.50
2019-02-20T12:43:42.470Z,32.90
2019-02-20T12:46:14.175Z,33.90
2019-02-20T12:48:45.632Z,34.77
2019-02-20T12:51:17.138Z,34.67
2019-02-20T12:53:48.698Z,35.43
2019-02-20T12:56:20.192Z,39.57
2019-02-20T12:58:52.076Z,40.33
2019-02-20T13:01:23.733Z,43.17
2019-02-20T13:03:55.219Z,40.10
2019-02-20T13:06:26.792Z,42.47
2019-02-20T13:08:58.410Z,38.83
2019-02-20T13:11:30.103Z,40.93
2019-02-20T13:14:06.418Z,42.37
2019-02-20T13:16:38.126Z,45.47
2019-02-20T13:19:09.669Z,42.10
2019-02-20T13:21:41.264Z,44.60
2019-02-20T13:24:12.882Z,40.07
2019-02-20T13:26:52.541Z,41.47
2019-02-20T13:29:17.971Z,41.67
2019-02-20T13:31:49.464Z,44.23
2019-02-20T13:34:21.075Z,43.87
2019-02-20T13:36:52.941Z,43.73
2019-02-20T13:39:24.418Z,40.77
2019-02-20T13:41:55.898Z,39.33
2019-02-20T13:44:27.353Z,35.13
2019-02-20T13:46:59.221Z,36.07
2019-02-20T13:49:30.847Z,35.47
2019-02-20T13:52:02.389Z,34.07
2019-02-20T13:54:35.553Z,36.23
2019-02-20T13:57:07.187Z,34.50
2019-02-20T13:59:41.399Z,31.47
2019-02-20T14:02:13.109Z,31.20
2019-02-20T14:04:46.836Z,32.53
2019-02-20T14:07:18.374Z,31.60
2019-02-20T14:09:49.906Z,32.27
2019-02-20T14:12:21.787Z,29.07
2019-02-20T14:14:53.655Z,31.40
2019-02-20T14:17:26.871Z,27.30
2019-02-20T14:19:58.639Z,30.50
2019-02-20T14:22:30.299Z,29.57
2019-02-20T14:25:02.789Z,27.20
2019-02-20T14:27:34.500Z,30.00
2019-02-20T14:30:06.347Z,30.00
2019-02-20T14:32:38.125Z,30.00
2019-02-20T14:35:11.193Z,30.60
2019-02-20T14:37:43.520Z,30.40
2019-02-20T14:40:16.451Z,28.00
2019-02-20T14:42:48.047Z,30.00
2019-02-20T14:45:19.567Z,28.10
2019-02-20T14:47:51.429Z,29.70
2019-02-20T14:50:23.855Z,27.20
2019-02-20T14:52:55.840Z,27.70
2019-02-20T14:55:28.848Z,24.27
2019-02-20T14:58:03.602Z,28.50
2019-02-20T15:00:36.068Z,32.20
2019-02-20T15:03:07.695Z,31.47
2019-02-20T15:05:39.210Z,32.00
2019-02-20T15:08:10.782Z,32.50
2019-02-20T15:10:42.351Z,33.43
2019-02-20T15:13:15.034Z,32.87
2019-02-20T15:15:48.606Z,32.10
2019-02-20T15:18:26.701Z,34.43
2019-02-20T15:21:02.678Z,31.33
2019-02-20T15:23:35.621Z,32.90
2019-02-20T15:26:07.605Z,32.37
2019-02-20T15:28:40.263Z,31.50
2019-02-20T15:31:11.729Z,32.87
2019-02-20T15:33:43.242Z,33.20
2019-02-20T15:36:15.613Z,29.83
2019-02-20T15:38:47.393Z,29.83
2019-02-20T15:41:19.206Z,29.20
2019-02-20T15:43:51.586Z,28.60
2019-02-20T15:46:23.122Z,26.53
2019-02-20T15:48:54.609Z,25.23
2019-02-20T15:51:26.494Z,24.23
2019-02-20T15:53:58.113Z,25.97
2019-02-20T15:56:29.592Z,23.23
2019-02-20T15:59:01.295Z,23.30
2019-02-20T16:01:32.944Z,20.33
2019-02-20T16:04:06.914Z,22.40
2019-02-20T16:06:41.233Z,21.70
2019-02-20T16:09:13.023Z,22.07
2019-02-20T16:11:50.171Z,22.73
2019-02-20T16:14:23.602Z,19.97
2019-02-20T16:16:55.328Z,32.77
2019-02-20T16:19:26.890Z,19.47
2019-02-20T16:21:58.435Z,20.50
2019-02-20T16:24:30.003Z,20.23
2019-02-20T16:27:01.507Z,20.67
2019-02-20T16:29:34.947Z,17.97
2019-02-20T16:32:06.551Z,17.10
2019-02-20T16:34:38.132Z,22.60
2019-02-20T16:37:09.704Z,13.93
2019-02-20T16:39:41.256Z,14.10
2019-02-20T16:42:13.243Z,13.70
2019-02-20T16:44:45.744Z,12.17
2019-02-20T16:47:17.345Z,9.60
2019-02-20T16:49:48.947Z,10.90
2019-02-20T16:52:20.720Z,11.30
2019-02-20T16:54:52.699Z,10.70
2019-02-20T16:57:24.350Z,11.10
2019-02-20T16:59:55.878Z,11.23
2019-02-20T17:02:27.374Z,10.53
2019-02-20T17:04:59.356Z,8.90
2019-02-20T17:07:32.096Z,8.50
2019-02-20T17:10:03.631Z,8.90
2019-02-20T17:12:35.279Z,9.33
2019-02-20T17:15:08.639Z,8.20
2019-02-20T17:17:40.304Z,7.40
2019-02-20T17:20:13.688Z,7.33
2019-02-20T17:22:45.488Z,7.40
2019-02-20T17:25:18.390Z,6.77
2019-02-20T17:27:49.920Z,6.63
2019-02-20T17:30:21.826Z,6.50
2019-02-20T17:32:53.590Z,7.40
2019-02-20T17:35:25.173Z,7.67
2019-02-20T17:37:56.798Z,6.90
2019-02-20T17:40:29.548Z,5.87
2019-02-20T17:43:01.590Z,6.77
2019-02-20T17:45:34.583Z,6.67
2019-02-20T17:48:06.248Z,6.30
2019-02-20T17:50:38.383Z,6.73
2019-02-20T17:53:09.988Z,6.70
2019-02-20T17:55:44.002Z,6.57
2019-02-20T17:58:15.711Z,6.00
2019-02-20T18:00:47.269Z,7.93
2019-02-20T18:03:18.778Z,6.80
2019-02-20T18:05:50.315Z,6.70
2019-02-20T18:08:21.846Z,6.87
2019-02-20T18:10:53.412Z,6.30
2019-02-20T18:13:24.909Z,5.77
2019-02-20T18:15:56.615Z,6.87
2019-02-20T18:18:29.672Z,6.93
2019-02-20T18:21:01.328Z,7.10
2019-02-20T18:23:32.963Z,8.60
2019-02-20T18:26:04.478Z,7.20
2019-02-20T18:28:35.994Z,7.30
2019-02-20T18:31:07.503Z,6.10
2019-02-20T18:37:40.396Z,7.27
2019-02-20T18:40:12.417Z,8.90
2019-02-20T18:42:44.230Z,8.73
2019-02-20T18:45:16.144Z,9.27
2019-02-20T18:47:47.860Z,8.63
2019-02-20T18:50:19.369Z,9.50
2019-02-20T18:52:52.965Z,10.10
2019-02-20T18:55:26.803Z,8.20
2019-02-20T18:58:02.562Z,7.83
2019-02-20T19:00:34.699Z,8.40
2019-02-20T19:03:06.690Z,7.23
2019-02-20T19:05:38.347Z,7.27
2019-02-20T19:08:39.322Z,10.10
2019-02-20T19:11:39.089Z,8.50
2019-02-20T19:14:57.996Z,7.83
2019-02-20T19:18:25.702Z,7.17
2019-02-20T19:21:18.513Z,7.70
2019-02-20T19:24:57.871Z,8.53
2019-02-20T19:28:01.788Z,9.13
2019-02-20T19:31:41.819Z,8.27
2019-02-20T19:34:53.352Z,7.37
2019-02-20T19:38:22.869Z,15.30
2019-02-20T19:42:08.830Z,7.80
2019-02-20T19:45:07.979Z,8.33
2019-02-20T19:48:41.654Z,7.37
2019-02-20T19:52:16.578Z,7.33
2019-02-20T19:55:38.188Z,8.37
2019-02-20T19:58:54.881Z,8.00
2019-02-20T20:02:48.592Z,8.30
2019-02-20T20:06:12.507Z,7.53
2019-02-20T20:09:21.472Z,8.10
2019-02-20T20:13:01.234Z,8.70
2019-02-20T20:16:30.978Z,8.20
2019-02-20T20:20:10.264Z,10.10
2019-02-20T20:23:30.316Z,8.50
2019-02-20T20:27:07.363Z,7.50
2019-02-20T20:30:41.425Z,7.83
2019-02-20T20:34:12.180Z,7.93
2019-02-20T20:37:09.968Z,8.37
2019-02-20T20:41:03.886Z,8.60
2019-02-20T20:44:29.223Z,9.77
2019-02-20T20:47:51.219Z,9.87
2019-02-20T20:51:13.748Z,9.10
2019-02-20T20:54:54.193Z,8.50
2019-02-20T20:58:38.653Z,9.40
2019-02-20T21:02:22.896Z,8.93
2019-02-20T21:06:11.999Z,9.03
2019-02-20T21:08:58.303Z,9.80
2019-02-20T21:12:30.344Z,10.80
2019-02-20T21:16:04.544Z,9.10
2019-02-20T21:19:35.281Z,8.20
2019-02-20T21:22:45.282Z,9.10
2019-02-20T21:26:02.839Z,9.77
2019-02-20T21:29:05.228Z,9.33
2019-02-20T21:32:20.167Z,10.33
2019-02-20T21:35:39.308Z,11.70
2019-02-20T21:39:07.056Z,10.83
2019-02-20T21:42:22.085Z,10.27
2019-02-20T21:46:02.763Z,10.40
2019-02-20T21:49:10.753Z,10.47
2019-02-20T21:52:51.615Z,11.67
2019-02-20T21:56:22.575Z,10.90
2019-02-20T21:59:21.286Z,11.23
2019-02-20T22:02:41.588Z,10.47
2019-02-20T22:06:19.397Z,12.87
2019-02-20T22:09:31.660Z,12.80
2019-02-20T22:13:26.444Z,12.30
2019-02-20T22:16:42.280Z,12.00
2019-02-20T22:20:18.067Z,12.17
2019-02-20T22:23:47.561Z,13.07
2019-02-20T22:27:24.985Z,12.43
2019-02-20T22:31:00.357Z,11.77
2019-02-20T22:34:37.919Z,12.37
2019-02-20T22:38:18.865Z,12.43
2019-02-20T22:41:52.071Z,13.53
2019-02-20T22:45:26.894Z,12.77
2019-02-20T22:49:16.675Z,13.37
2019-02-20T22:52:38.000Z,14.70
2019-02-20T22:56:28.551Z,16.43
2019-02-20T23:00:01.927Z,14.40
2019-02-20T23:03:32.197Z,14.50
2019-02-20T23:07:07.427Z,17.40
2019-02-20T23:10:22.860Z,14.53
2019-02-20T23:13:57.030Z,16.37
2019-02-20T23:16:28.525Z,15.70
2019-02-20T23:18:59.982Z,15.13
2019-02-20T23:21:31.452Z,16.47
2019-02-20T23:24:02.906Z,15.17
2019-02-20T23:26:34.514Z,17.17
2019-02-20T23:29:05.978Z,16.70
2019-02-20T23:31:37.466Z,15.57
2019-02-20T23:34:09.880Z,15.73
2019-02-20T23:36:41.652Z,15.60
2019-02-20T23:39:13.376Z,15.80
2019-02-20T23:41:44.956Z,15.87
2019-02-20T23:44:16.457Z,17.40
2019-02-20T23:46:49.033Z,15.93
2019-02-20T23:49:20.775Z,16.07
2019-02-20T23:51:52.486Z,17.23
2019-02-20T23:54:24.062Z,17.47
2019-02-20T23:56:55.738Z,16.17
2019-02-20T23:59:29.997Z,16.83
